Time;durP1;ratioP1;P1;durP2;ratioP2;P2;SDS_P1;SDS_P2;PMS_P1;PMS_P2;Temp;Humidity;BMP_temperature;BMP_pressure;BME280_temperature;BME280_humidity;BME280_pressure;Samples;Min_cycle;Max_cycle;Signal;HPM_P1;HPM_P2
2022/08/07 00:00:18;;;;;;;5.82;3.55;;;;;;;14.25;67.01;102637.34;5021305;28;20071;-57
2022/08/07 00:02:43;;;;;;;4.55;3.30;;;;;;;14.19;67.14;102634.44;5019214;28;20030;-56
2022/08/07 00:05:09;;;;;;;4.50;3.58;;;;;;;14.17;67.19;102631.06;5021142;28;20033;-57
2022/08/07 00:07:34;;;;;;;5.60;4.07;;;;;;;14.17;67.98;102633.75;5014012;28;20061;-56
2022/08/07 00:09:59;;;;;;;6.00;3.45;;;;;;;14.09;67.57;102610.44;5024065;28;20501;-55
2022/08/07 00:12:24;;;;;;;5.82;3.30;;;;;;;14.17;67.33;102628.41;5013282;28;20029;-55
2022/08/07 00:14:50;;;;;;;5.93;3.08;;;;;;;14.13;67.07;102619.81;5023628;28;20062;-56
2022/08/07 00:17:15;;;;;;;4.95;3.30;;;;;;;14.18;67.17;102625.59;5020223;28;20021;-54
2022/08/07 00:19:41;;;;;;;4.93;3.35;;;;;;;14.07;66.67;102620.44;5021225;28;20129;-57
2022/08/07 00:22:06;;;;;;;5.03;3.35;;;;;;;14.03;66.72;102611.03;5014369;28;20506;-57
2022/08/07 00:24:33;;;;;;;5.63;3.20;;;;;;;13.96;66.73;102609.97;5018258;28;20026;-58
2022/08/07 00:26:58;;;;;;;4.80;3.60;;;;;;;13.89;66.41;102612.41;5018503;28;20116;-56
2022/08/07 00:29:25;;;;;;;8.43;3.97;;;;;;;13.95;66.97;102617.13;5014180;28;20108;-56
2022/08/07 00:31:53;;;;;;;5.68;3.58;;;;;;;13.85;66.90;102612.81;5027026;28;20104;-57
2022/08/07 00:34:18;;;;;;;7.82;4.00;;;;;;;13.77;67.32;102605.56;5015242;28;20642;-57
2022/08/07 00:36:43;;;;;;;4.82;3.65;;;;;;;13.91;67.54;102598.91;5019582;28;20140;-57
2022/08/07 00:39:11;;;;;;;8.93;4.50;;;;;;;13.82;68.12;102594.41;5017556;28;20446;-56
2022/08/07 00:41:36;;;;;;;4.45;3.72;;;;;;;13.79;67.83;102600.06;5020784;28;20109;-58
2022/08/07 00:44:01;;;;;;;6.03;3.85;;;;;;;13.84;68.47;102595.13;5012391;28;20169;-56
2022/08/07 00:46:27;;;;;;;6.10;4.30;;;;;;;13.93;68.47;102596.91;5018215;28;20025;-57
2022/08/07 00:48:52;;;;;;;5.70;3.83;;;;;;;13.95;69.11;102598.44;5010642;28;20108;-56
2022/08/07 00:51:17;;;;;;;5.93;3.70;;;;;;;13.85;68.70;102600.31;5018995;28;20092;-56
2022/08/07 00:53:42;;;;;;;6.72;3.53;;;;;;;13.80;67.85;102577.72;5015772;28;20024;-57
2022/08/07 00:56:10;;;;;;;5.40;3.60;;;;;;;13.78;68.56;102593.88;5018631;28;20421;-57
2022/08/07 00:58:35;;;;;;;7.15;4.15;;;;;;;13.73;68.19;102588.16;5011868;28;20033;-56
2022/08/07 01:01:01;;;;;;;9.88;4.25;;;;;;;13.69;68.43;102592.13;5015355;28;20386;-57
2022/08/07 01:03:26;;;;;;;14.02;4.30;;;;;;;13.64;67.88;102586.38;5007355;28;20112;-56
2022/08/07 01:05:54;;;;;;;6.47;3.80;;;;;;;13.61;68.06;102592.03;5021054;28;20510;-57
2022/08/07 01:08:20;;;;;;;5.28;3.40;;;;;;;13.51;68.01;102589.38;5019682;28;20025;-57
2022/08/07 01:10:45;;;;;;;7.70;4.28;;;;;;;13.46;67.61;102583.63;5021552;28;20036;-56
2022/08/07 01:13:11;;;;;;;4.72;3.60;;;;;;;13.49;67.94;102586.00;5022198;28;20037;-55
2022/08/07 01:15:37;;;;;;;7.50;3.97;;;;;;;13.50;68.43;102579.69;5024127;28;20022;-56
2022/08/07 01:18:02;;;;;;;6.70;3.90;;;;;;;13.41;68.56;102582.41;5021510;28;20422;-56
2022/08/07 01:20:32;;;;;;;5.40;3.80;;;;;;;13.29;68.49;102576.38;5019441;28;20018;-55
2022/08/07 01:22:59;;;;;;;5.50;3.70;;;;;;;13.22;68.60;102576.13;5024006;28;20401;-55
2022/08/07 01:25:25;;;;;;;8.88;4.05;;;;;;;13.17;68.34;102569.53;5022943;28;20062;-56
2022/08/07 01:27:51;;;;;;;5.82;4.00;;;;;;;13.18;68.66;102569.41;5026235;28;20546;-57
2022/08/07 01:30:17;;;;;;;15.27;4.07;;;;;;;13.11;68.49;102557.63;5016499;28;20025;-55
2022/08/07 01:32:42;;;;;;;13.73;4.43;;;;;;;13.11;68.76;102557.63;5024455;28;20047;-56
2022/08/07 01:35:08;;;;;;;9.23;4.40;;;;;;;13.12;69.67;102561.97;5021794;28;20659;-56
2022/08/07 01:37:34;;;;;;;8.13;4.43;;;;;;;13.09;70.09;102562.25;5026925;28;20117;-57
2022/08/07 01:40:01;;;;;;;5.93;4.57;;;;;;;13.11;70.75;102565.63;5021208;28;20029;-55
2022/08/07 01:42:27;;;;;;;6.18;4.00;;;;;;;13.07;70.32;102569.56;5019477;28;20610;-57
2022/08/07 01:44:52;;;;;;;9.45;4.10;;;;;;;13.03;70.15;102563.69;5023335;28;20175;-57
2022/08/07 01:47:18;;;;;;;17.17;4.55;;;;;;;13.06;70.03;102559.88;5022932;28;20693;-55
2022/08/07 01:49:44;;;;;;;9.85;4.40;;;;;;;13.15;70.18;102566.16;5021109;28;20067;-58
2022/08/07 01:52:12;;;;;;;11.85;4.30;;;;;;;13.22;70.31;102561.94;5020460;28;20394;-56
2022/08/07 01:54:40;;;;;;;7.43;4.20;;;;;;;13.03;69.92;102553.00;5016688;28;20022;-57
2022/08/07 01:57:17;;;;;;;5.20;4.10;;;;;;;12.94;69.76;102558.34;5020101;28;20057;-55
2022/08/07 01:59:50;;;;;;;5.38;4.13;;;;;;;12.86;69.53;102556.41;5023285;28;20029;-55
2022/08/07 02:02:22;;;;;;;7.43;4.65;;;;;;;13.02;70.13;102553.16;5019770;28;20080;-56
2022/08/07 02:05:01;;;;;;;6.88;4.82;;;;;;;12.95;70.22;102560.03;5019594;28;20028;-55
2022/08/07 02:07:33;;;;;;;8.18;4.70;;;;;;;12.91;70.17;102561.31;5017526;28;20467;-56
2022/08/07 02:10:00;;;;;;;6.30;4.30;;;;;;;12.90;70.19;102554.28;5021350;28;20036;-57
2022/08/07 02:12:30;;;;;;;6.60;4.20;;;;;;;12.79;70.63;102549.13;5019339;28;20490;-57
2022/08/07 02:14:57;;;;;;;7.40;3.97;;;;;;;12.77;69.95;102554.63;5021052;28;20080;-57
2022/08/07 02:17:24;;;;;;;7.13;3.88;;;;;;;12.71;69.99;102550.66;5021046;28;20106;-56
2022/08/07 02:19:52;;;;;;;6.50;4.63;;;;;;;12.68;70.33;102558.09;5022056;28;20512;-56
2022/08/07 02:22:19;;;;;;;5.72;4.43;;;;;;;12.65;70.42;102551.25;5019330;28;20021;-56
2022/08/07 02:24:45;;;;;;;5.10;4.28;;;;;;;12.51;70.49;102533.03;5019434;28;20597;-56
2022/08/07 02:27:12;;;;;;;6.00;4.47;;;;;;;12.64;70.62;102546.06;5026214;28;20104;-57
2022/08/07 02:29:40;;;;;;;5.22;4.32;;;;;;;12.60;70.52;102550.84;5018530;28;20053;-57
2022/08/07 02:32:07;;;;;;;5.10;4.53;;;;;;;12.57;70.83;102550.28;5023974;28;20093;-55
2022/08/07 02:34:33;;;;;;;6.38;4.70;;;;;;;12.49;71.12;102556.31;5023199;28;20024;-55
2022/08/07 02:37:02;;;;;;;10.93;4.82;;;;;;;12.53;71.65;102552.38;5018243;28;20444;-56
2022/08/07 02:39:29;;;;;;;7.68;4.75;;;;;;;12.53;72.14;102547.06;5021912;28;20053;-57
2022/08/07 02:41:55;;;;;;;7.13;5.70;;;;;;;12.55;72.95;102545.09;5020889;28;20306;-56
2022/08/07 02:44:23;;;;;;;7.78;5.82;;;;;;;12.55;73.58;102537.09;5019274;28;20033;-56
2022/08/07 02:46:51;;;;;;;6.97;5.50;;;;;;;12.50;74.01;102546.50;5022109;28;20044;-56
2022/08/07 02:49:16;;;;;;;6.53;4.57;;;;;;;12.41;73.44;102537.50;5021044;28;20121;-57
2022/08/07 02:51:43;;;;;;;5.63;5.05;;;;;;;12.42;73.91;102528.53;5022986;28;20439;-56
2022/08/07 02:54:11;;;;;;;6.78;5.47;;;;;;;12.35;73.77;102536.25;5021580;28;20594;-56
2022/08/07 02:56:38;;;;;;;8.55;4.93;;;;;;;12.32;73.61;102533.03;5023669;28;20026;-57
2022/08/07 02:59:09;;;;;;;6.90;5.38;;;;;;;12.30;74.07;102527.84;5026743;28;20127;-55
2022/08/07 03:01:37;;;;;;;7.00;5.20;;;;;;;12.35;74.09;102532.75;5025860;28;20106;-56
2022/08/07 03:04:05;;;;;;;9.30;5.35;;;;;;;12.40;73.97;102533.16;5019602;28;20061;-55
2022/08/07 03:06:31;;;;;;;7.07;5.00;;;;;;;12.31;73.74;102531.34;5015215;28;20030;-55
2022/08/07 03:08:57;;;;;;;6.85;4.70;;;;;;;12.29;73.17;102535.97;5018277;28;20021;-56
2022/08/07 03:11:22;;;;;;;7.13;4.70;;;;;;;12.22;72.99;102538.38;5019683;28;20640;-56
2022/08/07 03:13:48;;;;;;;7.38;4.82;;;;;;;12.12;72.86;102534.00;5020975;28;20025;-56
2022/08/07 03:16:14;;;;;;;5.63;5.03;;;;;;;12.18;72.89;102533.47;5016164;28;20025;-55
2022/08/07 03:18:40;;;;;;;7.15;5.15;;;;;;;12.17;73.47;102527.31;5022628;28;20495;-56
2022/08/07 03:21:05;;;;;;;8.10;5.35;;;;;;;12.19;73.87;102537.81;5022401;28;20484;-57
2022/08/07 03:23:31;;;;;;;7.72;5.05;;;;;;;12.09;73.98;102535.97;5017229;28;20048;-57
2022/08/07 03:26:00;;;;;;;5.75;5.00;;;;;;;12.09;73.94;102535.13;5020192;28;20049;-57
2022/08/07 03:28:26;;;;;;;7.77;5.30;;;;;;;12.09;73.66;102543.13;5022830;28;20032;-56
2022/08/07 03:31:17;;;;;;;8.48;5.90;;;;;;;12.10;74.16;102537.66;5023630;28;20371;-56
2022/08/07 03:33:38;;;;;;;6.25;5.43;;;;;;;12.20;74.49;102531.50;5016594;28;20055;-57
2022/08/07 03:36:04;;;;;;;7.38;5.35;;;;;;;12.30;74.54;102543.00;5017612;28;20021;-57
2022/08/07 03:38:31;;;;;;;8.55;5.30;;;;;;;12.28;75.23;102534.31;5020827;28;20079;-56
2022/08/07 03:40:56;;;;;;;7.35;4.82;;;;;;;12.26;74.58;102523.78;5023790;28;20060;-57
2022/08/07 03:43:22;;;;;;;5.88;4.80;;;;;;;12.20;74.10;102532.34;5018992;28;20455;-57
2022/08/07 03:45:47;;;;;;;8.07;5.15;;;;;;;12.22;73.92;102519.72;5025838;28;20101;-56
2022/08/07 03:48:13;;;;;;;7.82;4.70;;;;;;;12.31;73.95;102534.03;5015377;28;20029;-55
2022/08/07 03:50:39;;;;;;;6.40;4.72;;;;;;;12.33;73.78;102534.72;5023507;28;20642;-56
2022/08/07 03:53:05;;;;;;;6.68;4.78;;;;;;;12.18;73.51;102530.81;5017666;28;20014;-56
2022/08/07 03:55:31;;;;;;;5.38;4.78;;;;;;;12.17;73.47;102537.13;5018784;28;20065;-57
2022/08/07 03:57:58;;;;;;;7.25;4.65;;;;;;;12.08;73.30;102536.09;5015423;28;21325;-58
2022/08/07 04:00:23;;;;;;;8.05;4.85;;;;;;;11.97;72.91;102534.41;5024473;28;20037;-56
2022/08/07 04:02:49;;;;;;;5.70;4.38;;;;;;;11.93;72.52;102537.50;5012346;28;20068;-56
2022/08/07 04:05:14;;;;;;;7.40;4.63;;;;;;;11.86;72.53;102541.69;5019820;28;20024;-57
2022/08/07 04:07:46;;;;;;;5.35;4.35;;;;;;;11.83;72.96;102545.44;5021941;28;20029;-56
2022/08/07 04:10:11;;;;;;;7.15;4.40;;;;;;;11.77;73.19;102540.66;5020924;28;20032;-57
2022/08/07 04:12:38;;;;;;;9.23;4.70;;;;;;;11.77;73.23;102545.97;5025711;28;20025;-57
2022/08/07 04:15:03;;;;;;;6.95;4.85;;;;;;;11.77;72.91;102548.63;5018858;28;20034;-57
2022/08/07 04:17:29;;;;;;;7.47;4.57;;;;;;;11.78;73.11;102551.19;5020143;28;20030;-55
2022/08/07 04:19:54;;;;;;;11.23;4.82;;;;;;;11.75;73.36;102555.91;5019215;28;20081;-57
2022/08/07 04:22:22;;;;;;;7.57;5.43;;;;;;;11.72;73.66;102551.72;5022259;28;20401;-56
2022/08/07 04:24:48;;;;;;;5.80;4.85;;;;;;;11.76;74.49;102544.28;5016557;28;20026;-57
2022/08/07 04:27:13;;;;;;;6.32;4.15;;;;;;;11.77;75.05;102552.13;5015831;28;20034;-55
2022/08/07 04:29:38;;;;;;;9.90;4.47;;;;;;;11.79;74.79;102557.34;5021339;28;20402;-56
2022/08/07 04:32:06;;;;;;;6.72;4.70;;;;;;;11.94;75.05;102557.81;5019171;28;20040;-56
2022/08/07 04:34:32;;;;;;;12.07;5.80;;;;;;;12.02;75.48;102566.78;5019231;28;20146;-57
2022/08/07 04:36:59;;;;;;;8.48;5.25;;;;;;;12.07;75.58;102569.88;5018557;28;20158;-55
2022/08/07 04:39:24;;;;;;;6.78;4.82;;;;;;;12.13;75.69;102567.63;5018378;28;20104;-56
2022/08/07 04:41:50;;;;;;;8.77;6.68;;;;;;;12.19;75.84;102564.44;5021233;28;21050;-57
2022/08/07 04:44:15;;;;;;;8.38;6.15;;;;;;;12.19;75.91;102567.97;5014258;28;20040;-57
2022/08/07 04:47:01;;;;;;;10.35;6.05;;;;;;;12.22;75.89;102567.66;5023464;28;20596;-54
2022/08/07 04:50:06;;;;;;;10.85;5.78;;;;;;;12.33;76.11;102567.53;5023255;28;20040;-57
2022/08/07 04:52:54;;;;;;;7.32;5.22;;;;;;;12.24;75.68;102570.19;5016304;28;20542;-57
2022/08/07 04:55:47;;;;;;;11.33;5.70;;;;;;;12.24;75.61;102579.03;5025062;28;20053;-55
2022/08/07 04:58:17;;;;;;;9.80;5.60;;;;;;;12.26;75.67;102576.22;5016421;28;20034;-55
2022/08/07 05:01:06;;;;;;;10.23;5.75;;;;;;;12.31;75.42;102577.47;5024991;28;20053;-57
2022/08/07 05:03:42;;;;;;;7.47;6.00;;;;;;;12.32;75.69;102581.00;5021591;28;20030;-55
2022/08/07 05:06:21;;;;;;;7.63;6.15;;;;;;;12.36;76.17;102569.06;5015914;28;20022;-54
2022/08/07 05:08:53;;;;;;;8.88;5.90;;;;;;;12.35;76.28;102575.38;5021648;28;20021;-56
2022/08/07 05:11:26;;;;;;;6.85;6.00;;;;;;;12.34;75.99;102568.38;5022352;28;20041;-55
2022/08/07 05:14:29;;;;;;;7.70;5.38;;;;;;;12.41;76.40;102566.81;5018790;28;20072;-55
2022/08/07 05:16:59;;;;;;;8.07;6.35;;;;;;;12.37;75.96;102568.09;5024934;28;20572;-55
2022/08/07 05:19:28;;;;;;;8.95;6.32;;;;;;;12.44;76.33;102571.06;5026730;28;20170;-56
2022/08/07 05:21:55;;;;;;;;;;;;;;;12.64;76.39;102578.88;5017893;28;20022;-55
2022/08/07 05:24:22;;;;;;;9.77;6.82;;;;;;;12.67;76.32;102581.25;5025045;28;19909;-56
2022/08/07 05:26:52;;;;;;;9.68;6.32;;;;;;;12.76;76.78;102581.41;5023774;28;20398;-56
2022/08/07 05:29:20;;;;;;;13.40;7.10;;;;;;;12.88;76.42;102581.09;5014836;28;20367;-56
2022/08/07 05:31:47;;;;;;;11.02;7.57;;;;;;;13.08;77.11;102583.75;5024320;28;20025;-56
2022/08/07 05:34:15;;;;;;;10.95;7.35;;;;;;;13.17;76.94;102582.88;5020045;28;20029;-57
2022/08/07 05:36:45;;;;;;;10.65;7.60;;;;;;;13.32;76.81;102587.63;5020110;28;20072;-58
2022/08/07 05:39:11;;;;;;;11.57;7.90;;;;;;;13.54;77.12;102586.41;5016706;28;20609;-55
2022/08/07 05:41:38;;;;;;;13.07;8.10;;;;;;;13.55;77.08;102580.06;5024167;28;20037;-58
2022/08/07 05:44:04;;;;;;;11.55;7.82;;;;;;;13.81;77.05;102584.72;5018316;28;20017;-56
2022/08/07 05:46:29;;;;;;;12.45;8.07;;;;;;;13.84;77.08;102582.59;5021817;28;20041;-56
2022/08/07 05:48:55;;;;;;;9.95;7.75;;;;;;;14.04;76.73;102588.66;5023540;28;20017;-57
2022/08/07 05:51:23;;;;;;;11.55;7.10;;;;;;;14.14;76.75;102592.13;5021211;28;20037;-56
2022/08/07 05:53:48;;;;;;;10.00;7.95;;;;;;;14.14;76.20;102592.13;5025863;28;20009;-57
2022/08/07 05:56:15;;;;;;;11.80;8.85;;;;;;;14.37;76.03;102592.50;5019891;28;20029;-57
2022/08/07 05:58:45;;;;;;;11.43;8.30;;;;;;;14.55;76.37;102593.41;5018025;28;20043;-57
2022/08/07 06:01:12;;;;;;;13.93;8.35;;;;;;;14.74;76.36;102591.53;5013068;28;20052;-55
2022/08/07 06:03:40;;;;;;;13.57;8.50;;;;;;;14.82;75.82;102588.94;5019196;28;20108;-57
2022/08/07 06:06:06;;;;;;;12.23;8.25;;;;;;;14.87;75.61;102600.00;5014189;28;20021;-56
2022/08/07 06:08:32;;;;;;;12.65;8.45;;;;;;;14.89;74.83;102598.00;5019739;28;20018;-56
2022/08/07 06:10:58;;;;;;;11.30;8.57;;;;;;;14.97;74.70;102600.72;5016481;28;20025;-56
2022/08/07 06:13:24;;;;;;;12.35;9.20;;;;;;;15.04;74.53;102592.94;5023857;28;20040;-56
2022/08/07 06:15:51;;;;;;;11.02;9.23;;;;;;;15.14;74.17;102602.53;5017149;28;20384;-55
2022/08/07 06:18:17;;;;;;;11.98;9.45;;;;;;;15.22;74.20;102604.41;5020451;28;20026;-56
2022/08/07 06:20:44;;;;;;;12.10;9.20;;;;;;;15.16;73.59;102608.56;5020477;28;20030;-54
2022/08/07 06:23:10;;;;;;;13.13;8.85;;;;;;;15.26;73.60;102603.09;5019053;28;20032;-55
2022/08/07 06:25:35;;;;;;;16.98;9.45;;;;;;;15.17;73.48;102606.72;5022284;28;20026;-54
2022/08/07 06:28:06;;;;;;;12.88;9.23;;;;;;;15.17;73.42;102612.94;5024431;28;20025;-55
2022/08/07 06:30:33;;;;;;;11.65;9.05;;;;;;;15.29;73.36;102607.28;5020669;28;20018;-56
2022/08/07 06:32:59;;;;;;;12.35;9.02;;;;;;;15.36;73.44;102594.97;5017632;28;20072;-56
2022/08/07 06:35:24;;;;;;;12.10;8.35;;;;;;;15.44;73.44;102603.06;5025178;28;20013;-57
2022/08/07 06:37:49;;;;;;;11.68;8.55;;;;;;;15.49;73.27;102598.03;5017619;28;20025;-56
2022/08/07 06:40:15;;;;;;;13.25;9.25;;;;;;;15.46;72.68;102595.69;5010558;28;20033;-57
2022/08/07 06:42:44;;;;;;;13.35;8.45;;;;;;;15.61;72.92;102591.47;5015338;28;20037;-58
2022/08/07 06:45:12;;;;;;;11.75;8.93;;;;;;;15.64;72.48;102593.81;5016516;28;20696;-55
2022/08/07 06:47:38;;;;;;;15.77;10.50;;;;;;;15.74;71.85;102591.00;5018294;28;20025;-56
2022/08/07 06:50:04;;;;;;;13.63;9.32;;;;;;;15.85;71.98;102573.78;5014319;28;20391;-56
2022/08/07 06:52:33;;;;;;;18.15;9.13;;;;;;;16.05;71.85;102580.53;5014172;28;20025;-56
2022/08/07 06:54:59;;;;;;;;;;;;;;;16.12;71.50;102589.59;5018912;28;20156;-57
2022/08/07 06:57:25;;;;;;;13.35;10.52;;;;;;;16.26;71.55;102578.25;5015449;28;19999;-56
2022/08/07 06:59:51;;;;;;;20.70;9.80;;;;;;;16.44;71.03;102580.75;5011761;28;20018;-56
2022/08/07 07:02:20;;;;;;;12.98;9.27;;;;;;;16.53;70.34;102578.94;5010887;28;20026;-56
2022/08/07 07:04:46;;;;;;;11.27;9.05;;;;;;;16.64;70.09;102574.06;5015788;28;20033;-57
2022/08/07 07:07:12;;;;;;;11.13;8.63;;;;;;;16.77;69.26;102576.28;5016578;28;20030;-57
2022/08/07 07:09:43;;;;;;;10.73;8.95;;;;;;;16.85;68.81;102568.22;5026329;28;20068;-56
2022/08/07 07:12:21;;;;;;;9.50;8.20;;;;;;;16.96;68.41;102585.81;5024882;28;20036;-55
2022/08/07 07:14:53;;;;;;;10.98;8.10;;;;;;;17.00;67.64;102587.97;5014673;28;20517;-57
2022/08/07 07:17:30;;;;;;;9.88;7.78;;;;;;;17.11;67.49;102584.13;5023009;28;20029;-57
2022/08/07 07:19:59;;;;;;;11.70;8.35;;;;;;;17.20;66.82;102587.63;5016286;28;20030;-57
2022/08/07 07:22:27;;;;;;;10.23;8.05;;;;;;;17.18;66.42;102585.09;5019443;28;20049;-57
2022/08/07 07:24:53;;;;;;;10.80;8.15;;;;;;;17.19;65.71;102580.56;5018897;28;20029;-57
2022/08/07 07:27:22;;;;;;;10.48;7.95;;;;;;;17.19;65.49;102585.94;5015006;28;20024;-58
2022/08/07 07:29:50;;;;;;;;;;;;;;;17.27;65.44;102586.75;5014631;28;20037;-58
2022/08/07 07:32:17;;;;;;;11.00;8.45;;;;;;;17.34;65.97;102576.16;5019284;28;19943;-57
2022/08/07 07:34:48;;;;;;;14.73;8.85;;;;;;;17.21;65.22;102578.56;5013314;28;20104;-57
2022/08/07 07:37:15;;;;;;;11.52;8.45;;;;;;;17.31;65.56;102573.81;5021370;28;20112;-58
2022/08/07 07:39:41;;;;;;;14.18;9.40;;;;;;;17.36;65.44;102565.25;5019802;28;20064;-57
2022/08/07 07:42:09;;;;;;;13.18;8.45;;;;;;;17.37;64.79;102578.53;5018037;28;20064;-56
2022/08/07 07:44:38;;;;;;;11.38;7.40;;;;;;;17.42;64.67;102576.16;5020109;28;20568;-56
2022/08/07 07:47:06;;;;;;;11.23;7.32;;;;;;;17.45;64.02;102574.97;5012447;28;20034;-57
2022/08/07 07:49:34;;;;;;;8.30;6.78;;;;;;;17.53;63.89;102569.53;5017933;28;20078;-55
2022/08/07 07:52:01;;;;;;;12.20;7.35;;;;;;;17.54;63.78;102572.06;5016916;28;20036;-57
2022/08/07 07:54:28;;;;;;;15.73;8.43;;;;;;;17.60;63.45;102576.72;5021415;28;20105;-56
2022/08/07 07:56:56;;;;;;;12.60;8.50;;;;;;;17.67;63.44;102568.00;5019025;28;20054;-56
2022/08/07 07:59:23;;;;;;;8.80;6.63;;;;;;;17.75;63.06;102573.34;5016277;28;20522;-57
2022/08/07 08:01:50;;;;;;;11.07;7.10;;;;;;;17.79;62.52;102583.56;5018780;28;20120;-56
2022/08/07 08:04:17;;;;;;;8.88;6.60;;;;;;;17.86;62.30;102572.94;5022733;28;20021;-56
2022/08/07 08:06:44;;;;;;;13.27;6.82;;;;;;;17.91;61.82;102567.88;5016723;28;20059;-57
2022/08/07 08:09:13;;;;;;;9.35;7.00;;;;;;;17.97;61.79;102572.56;5015972;28;20018;-56
2022/08/07 08:11:38;;;;;;;;;;;;;;;18.10;61.64;102570.13;5021761;28;20040;-56
2022/08/07 08:14:04;;;;;;;13.10;7.10;;;;;;;18.05;61.45;102569.81;5016049;28;19909;-56
2022/08/07 08:16:41;;;;;;;9.10;6.97;;;;;;;18.11;60.60;102569.09;5015196;28;20030;-56
2022/08/07 08:19:11;;;;;;;11.07;7.15;;;;;;;18.22;60.90;102570.56;5013919;28;20080;-56
2022/08/07 08:27:14;;;;;;;12.05;6.60;;;;;;;18.32;60.27;102565.78;5022211;28;20067;-56
2022/08/07 08:29:49;;;;;;;9.15;6.18;;;;;;;18.37;59.82;102567.91;5033914;28;20101;-57
2022/08/07 08:32:19;;;;;;;10.80;7.20;;;;;;;18.43;59.39;102572.56;5017810;28;20041;-56
2022/08/07 08:34:47;;;;;;;10.05;6.75;;;;;;;18.49;59.66;102572.69;5021650;28;20029;-56
2022/08/07 08:37:14;;;;;;;11.77;6.80;;;;;;;18.53;59.20;102575.88;5016298;28;20047;-57
2022/08/07 08:39:43;;;;;;;9.45;6.45;;;;;;;18.66;59.03;102573.44;5025041;28;20159;-58
2022/08/07 08:42:46;;;;;;;9.77;7.40;;;;;;;18.76;58.75;102570.47;5015441;28;20029;-58
2022/08/07 08:45:36;;;;;;;9.93;7.30;;;;;;;18.87;58.53;102570.88;5021013;28;20029;-55
2022/08/07 08:48:14;;;;;;;8.65;6.07;;;;;;;19.00;57.95;102575.63;5018548;28;20044;-56
2022/08/07 08:51:04;;;;;;;8.02;5.70;;;;;;;19.08;56.81;102569.31;5018405;28;20017;-56
2022/08/07 08:53:52;;;;;;;8.63;5.50;;;;;;;19.16;56.94;102575.47;5013347;28;20030;-57
2022/08/07 08:56:25;;;;;;;9.52;5.00;;;;;;;19.21;56.47;102558.75;5012280;28;20512;-56
2022/08/07 08:58:58;;;;;;;7.43;4.95;;;;;;;19.30;56.46;102559.47;5020860;28;20034;-56
2022/08/07 09:01:42;;;;;;;8.55;5.22;;;;;;;19.44;56.27;102558.66;5012940;28;20026;-58
2022/08/07 09:05:00;;;;;;;7.55;4.80;;;;;;;19.59;55.49;102558.66;5015126;28;20038;-58
2022/08/07 09:07:48;;;;;;;10.05;5.68;;;;;;;19.69;55.04;102560.06;5012891;28;20041;-56
2022/08/07 09:10:24;;;;;;;6.53;4.90;;;;;;;19.78;54.51;102560.78;5017676;28;20025;-55
2022/08/07 09:13:02;;;;;;;7.18;4.90;;;;;;;19.92;53.84;102559.88;5015636;28;20040;-58
2022/08/07 09:15:49;;;;;;;6.90;4.22;;;;;;;20.06;53.92;102558.19;5014763;28;20022;-57
2022/08/07 09:18:52;;;;;;;9.10;4.07;;;;;;;20.17;53.24;102562.22;5009991;28;20063;-56
2022/08/07 09:21:23;;;;;;;5.25;3.90;;;;;;;20.29;52.14;102547.22;5011359;28;20038;-57
2022/08/07 09:24:00;;;;;;;7.85;4.15;;;;;;;20.43;50.88;102551.72;5012427;28;20021;-58
2022/08/07 09:26:36;;;;;;;5.13;3.92;;;;;;;20.55;50.83;102552.03;5020200;28;20159;-57
2022/08/07 09:29:16;;;;;;;8.02;4.30;;;;;;;20.64;50.46;102551.69;5014420;28;20105;-56
2022/08/07 09:31:49;;;;;;;5.28;3.50;;;;;;;20.94;50.17;102562.31;5011048;28;20474;-56
2022/08/07 09:34:24;;;;;;;6.85;4.30;;;;;;;20.95;49.64;102553.16;5013217;28;20398;-59
2022/08/07 09:37:01;;;;;;;7.88;3.85;;;;;;;21.18;49.42;102551.03;5011352;28;20179;-59
2022/08/07 09:39:50;;;;;;;5.25;3.78;;;;;;;21.44;49.69;102546.84;5014486;28;20040;-57
2022/08/07 09:42:18;;;;;;;;;;;;;;;21.56;49.30;102551.44;5016845;28;20029;-56
2022/08/07 09:44:51;;;;;;;7.33;5.13;;;;;;;21.54;47.87;102545.41;5012137;28;19971;-56
2022/08/07 09:47:16;;;;;;;7.57;4.25;;;;;;;21.48;47.70;102538.13;5013911;28;20529;-56
2022/08/07 09:50:02;;;;;;;7.35;4.82;;;;;;;21.72;47.46;102539.47;5019613;28;20046;-59
2022/08/07 09:52:47;;;;;;;7.10;4.38;;;;;;;21.80;47.54;102539.28;5014182;28;20479;-56
2022/08/07 09:55:17;;;;;;;8.43;4.35;;;;;;;21.87;47.15;102525.75;5015455;28;20026;-58
2022/08/07 09:58:03;;;;;;;6.50;3.83;;;;;;;22.15;47.03;102526.47;5016861;28;20526;-59
2022/08/07 10:00:54;;;;;;;7.40;3.97;;;;;;;22.42;46.99;102524.63;5017228;28;20109;-58
2022/08/07 10:03:46;;;;;;;6.90;3.30;;;;;;;22.52;46.74;102516.91;4981941;28;20050;-56
2022/08/07 10:06:29;;;;;;;6.35;3.45;;;;;;;22.81;46.17;102520.25;5013647;28;20514;-57
2022/08/07 10:09:07;;;;;;;7.60;3.90;;;;;;;22.77;44.56;102513.53;5010854;28;20032;-57
2022/08/07 10:11:54;;;;;;;6.57;3.67;;;;;;;22.70;44.18;102512.72;5017613;28;20021;-58
2022/08/07 10:14:45;;;;;;;5.85;3.20;;;;;;;22.80;44.89;102502.28;5015887;28;20034;-58
2022/08/07 10:17:28;;;;;;;7.18;3.15;;;;;;;22.95;43.89;102502.94;5012637;28;20029;-59
2022/08/07 10:20:12;;;;;;;4.43;3.42;;;;;;;22.93;44.14;102502.31;5016341;28;20029;-56
2022/08/07 10:23:08;;;;;;;9.95;8.20;;;;;;;23.03;43.75;102499.97;5017896;28;20298;-57
2022/08/07 10:25:57;;;;;;;5.75;3.80;;;;;;;23.14;43.78;102493.91;5021224;28;20033;-58
2022/08/07 10:28:44;;;;;;;5.57;3.47;;;;;;;23.49;43.99;102497.09;5000967;28;20033;-57
2022/08/07 10:31:27;;;;;;;6.72;3.38;;;;;;;23.60;42.85;102489.34;5018375;28;20033;-58
2022/08/07 10:34:01;;;;;;;4.07;3.10;;;;;;;23.77;43.24;102485.09;5014845;28;20040;-58
2022/08/07 10:36:51;;;;;;;5.57;3.08;;;;;;;23.64;41.10;102496.00;5026385;28;20040;-57
2022/08/07 10:39:38;;;;;;;4.43;3.00;;;;;;;23.74;41.62;102490.94;5025451;28;20034;-58
2022/08/07 10:42:35;;;;;;;6.22;3.78;;;;;;;23.84;42.38;102495.91;5013496;28;20037;-56
2022/08/07 10:45:20;;;;;;;5.00;3.13;;;;;;;23.83;41.56;102492.34;5017237;28;20116;-57
2022/08/07 10:48:18;;;;;;;4.75;2.65;;;;;;;23.92;41.54;102484.78;5023422;28;20024;-58
2022/08/07 10:51:00;;;;;;;5.95;3.10;;;;;;;23.89;41.22;102485.22;5004005;28;20124;-57
2022/08/07 10:53:53;;;;;;;4.03;2.80;;;;;;;24.09;41.26;102483.19;5015482;28;20112;-58
2022/08/07 10:56:39;;;;;;;4.32;3.00;;;;;;;23.83;40.18;102489.63;5013830;28;20049;-59
2022/08/07 10:59:31;;;;;;;4.97;3.08;;;;;;;23.76;39.65;102486.97;5020290;28;20038;-57
2022/08/07 11:02:01;;;;;;;6.13;3.03;;;;;;;23.87;39.23;102479.16;5014819;28;20136;-57
2022/08/07 11:04:45;;;;;;;5.45;3.03;;;;;;;24.07;39.66;102471.72;5017100;28;20025;-57
2022/08/07 11:07:29;;;;;;;5.13;2.55;;;;;;;24.32;39.51;102477.19;5018576;28;20033;-58
2022/08/07 11:10:00;;;;;;;4.00;2.85;;;;;;;24.33;38.67;102476.97;5011977;28;20033;-58
2022/08/07 11:12:36;;;;;;;3.00;2.50;;;;;;;24.31;37.97;102468.22;5020003;28;20165;-56
2022/08/07 11:15:08;;;;;;;4.25;2.30;;;;;;;24.19;37.05;102460.97;5016665;28;20077;-58
2022/08/07 11:18:01;;;;;;;9.93;2.50;;;;;;;24.06;37.81;102457.31;5017896;28;20060;-57
2022/08/07 11:20:41;;;;;;;3.58;2.30;;;;;;;24.18;37.73;102452.00;5022417;28;20473;-58
2022/08/07 11:23:24;;;;;;;4.88;2.22;;;;;;;24.59;39.32;102454.16;5010654;28;20022;-58
2022/08/07 11:25:56;;;;;;;3.20;2.25;;;;;;;24.78;38.41;102444.13;5017641;28;20478;-59
2022/08/07 11:28:32;;;;;;;3.08;2.13;;;;;;;24.68;37.82;102449.25;5016819;28;20037;-58
2022/08/07 11:31:35;;;;;;;4.22;2.63;;;;;;;25.02;38.60;102445.97;5018607;28;20021;-57
2022/08/07 11:34:23;;;;;;;2.67;2.00;;;;;;;25.26;38.16;102444.22;5010804;28;20084;-58
2022/08/07 11:37:04;;;;;;;3.50;1.98;;;;;;;24.97;36.02;102440.34;5014082;28;20045;-57
2022/08/07 11:39:53;;;;;;;4.50;2.20;;;;;;;24.96;36.21;102446.03;5011469;28;20475;-58
2022/08/07 11:42:45;;;;;;;2.88;1.70;;;;;;;24.76;35.33;102435.38;5016409;28;20029;-59
2022/08/07 11:45:35;;;;;;;7.80;5.97;;;;;;;24.78;34.85;102433.25;5012350;28;20025;-58
2022/08/07 11:48:29;;;;;;;3.45;2.30;;;;;;;24.78;34.38;102427.81;5011005;28;20030;-58
2022/08/07 11:51:03;;;;;;;2.55;2.13;;;;;;;24.75;34.79;102420.13;5015311;28;20083;-59